SWA540 KOAK-KONT
Flight info
| Callsign | SWA540 |
|---|---|
| Flight time | 1h 16m |
| Altitude | 39000 |
| Route | CNDEL5 KAYEX LOSHN EHF ZIGGY8 |
| Aircraft | B738/M-SDE2E3FGHIRWXY/LB1 |
Departure
| Time | 2026-05-05 21:42 |
|---|---|
| Airport | San Francisco Bay Oakland International Airport (KOAK) |
Arrival
| Time | 2026-05-05 22:59 |
|---|---|
| Airport | Ontario International Airport (KONT) |
| Time | Latitude | Longitude | Altitude | Speed | Heading |
|---|---|---|---|---|---|
| 2026-05-05 20:15 | 37.71150 | -122.21339 | 8 ft | 0 kts | 37° |
| 2026-05-05 21:32 | 37.71149 | -122.21339 | 8 ft | 2 kts | 36° |
| 2026-05-05 21:32 | 37.71128 | -122.21358 | 9 ft | 4 kts | 37° |
| 2026-05-05 21:33 | 37.71107 | -122.21379 | 8 ft | 4 kts | 37° |
| 2026-05-05 21:33 | 37.71085 | -122.21399 | 10 ft | 4 kts | 37° |
| 2026-05-05 21:33 | 37.71064 | -122.21419 | 8 ft | 4 kts | 37° |
| 2026-05-05 21:33 | 37.71042 | -122.21440 | 10 ft | 4 kts | 37° |
| 2026-05-05 21:34 | 37.71020 | -122.21461 | 10 ft | 4 kts | 37° |
| 2026-05-05 21:34 | 37.70999 | -122.21482 | 11 ft | 4 kts | 38° |
| 2026-05-05 21:34 | 37.70977 | -122.21503 | 8 ft | 4 kts | 39° |
| 2026-05-05 21:34 | 37.70956 | -122.21525 | 9 ft | 4 kts | 40° |
| 2026-05-05 21:35 | 37.70936 | -122.21547 | 10 ft | 4 kts | 43° |
| 2026-05-05 21:35 | 37.70918 | -122.21570 | 8 ft | 4 kts | 50° |
| 2026-05-05 21:35 | 37.70904 | -122.21596 | 9 ft | 3 kts | 72° |
| 2026-05-05 21:35 | 37.70903 | -122.21616 | 10 ft | 2 kts | 111° |
| 2026-05-05 21:36 | 37.70908 | -122.21629 | 10 ft | 2 kts | 123° |
| 2026-05-05 21:36 | 37.70913 | -122.21638 | 10 ft | 0 kts | 127° |
| 2026-05-05 21:38 | 37.70899 | -122.21624 | 9 ft | 7 kts | 147° |
| 2026-05-05 21:38 | 37.70847 | -122.21624 | 10 ft | 8 kts | 202° |
| 2026-05-05 21:38 | 37.70804 | -122.21664 | 10 ft | 8 kts | 219° |
| 2026-05-05 21:38 | 37.70764 | -122.21706 | 10 ft | 7 kts | 220° |
| 2026-05-05 21:39 | 37.70726 | -122.21746 | 9 ft | 7 kts | 218° |
| 2026-05-05 21:39 | 37.70686 | -122.21776 | 10 ft | 7 kts | 201° |
| 2026-05-05 21:39 | 37.70640 | -122.21778 | 8 ft | 7 kts | 158° |
| 2026-05-05 21:39 | 37.70607 | -122.21736 | 9 ft | 7 kts | 129° |
| 2026-05-05 21:40 | 37.70575 | -122.21689 | 8 ft | 9 kts | 131° |
| 2026-05-05 21:40 | 37.70504 | -122.21593 | 8 ft | 21 kts | 129° |
| 2026-05-05 21:40 | 37.70410 | -122.21456 | 9 ft | 21 kts | 140° |
| 2026-05-05 21:40 | 37.70286 | -122.21369 | 10 ft | 20 kts | 159° |
| 2026-05-05 21:41 | 37.70194 | -122.21392 | 9 ft | 13 kts | 217° |
| 2026-05-05 21:41 | 37.70188 | -122.21485 | 8 ft | 12 kts | 307° |
| 2026-05-05 21:41 | 37.70208 | -122.21515 | 8 ft | 0 kts | 309° |
| 2026-05-05 21:42 | 37.70231 | -122.21549 | 8 ft | 29 kts | 310° |
| 2026-05-05 21:42 | 37.70723 | -122.22289 | 8 ft | 131 kts | 310° |
| 2026-05-05 21:42 | 37.71164 | -122.22980 | 39 ft | 170 kts | 309° |
| 2026-05-05 21:42 | 37.72012 | -122.24133 | 847 ft | 176 kts | 314° |
| 2026-05-05 21:43 | 37.72836 | -122.25248 | 1865 ft | 187 kts | 310° |
| 2026-05-05 21:43 | 37.74081 | -122.27166 | 1995 ft | 235 kts | 308° |
| 2026-05-05 21:43 | 37.75122 | -122.28772 | 1987 ft | 235 kts | 309° |
| 2026-05-05 21:43 | 37.76166 | -122.30356 | 1984 ft | 233 kts | 309° |
| 2026-05-05 21:44 | 37.77209 | -122.31934 | 2251 ft | 235 kts | 309° |
| 2026-05-05 21:44 | 37.78261 | -122.33511 | 3052 ft | 236 kts | 309° |
| 2026-05-05 21:44 | 37.78853 | -122.34685 | 3369 ft | 249 kts | 292° |
| 2026-05-05 21:44 | 37.79054 | -122.36895 | 3986 ft | 262 kts | 262° |
| 2026-05-05 21:45 | 37.78318 | -122.39015 | 4947 ft | 271 kts | 233° |
| 2026-05-05 21:45 | 37.76787 | -122.40453 | 5822 ft | 281 kts | 202° |
| 2026-05-05 21:45 | 37.74224 | -122.41278 | 6935 ft | 294 kts | 192° |
| 2026-05-05 21:45 | 37.72187 | -122.41747 | 7804 ft | 300 kts | 191° |
| 2026-05-05 21:46 | 37.70794 | -122.42060 | 8399 ft | 303 kts | 191° |
| 2026-05-05 21:46 | 37.68751 | -122.42529 | 9226 ft | 310 kts | 191° |
| 2026-05-05 21:46 | 37.66612 | -122.43038 | 9737 ft | 313 kts | 191° |
| 2026-05-05 21:46 | 37.64460 | -122.43565 | 9990 ft | 318 kts | 192° |
| 2026-05-05 21:47 | 37.62274 | -122.44109 | 9973 ft | 322 kts | 192° |
| 2026-05-05 21:47 | 37.60081 | -122.44658 | 9971 ft | 320 kts | 192° |
| 2026-05-05 21:47 | 37.57915 | -122.45205 | 9991 ft | 317 kts | 192° |
| 2026-05-05 21:47 | 37.55049 | -122.45935 | 9996 ft | 316 kts | 192° |
| 2026-05-05 21:48 | 37.53595 | -122.46307 | 9986 ft | 315 kts | 192° |
| 2026-05-05 21:48 | 37.51446 | -122.46810 | 9979 ft | 315 kts | 184° |
| 2026-05-05 21:48 | 37.49307 | -122.46463 | 10006 ft | 310 kts | 157° |
| 2026-05-05 21:48 | 37.47484 | -122.45093 | 10082 ft | 316 kts | 133° |
| 2026-05-05 21:49 | 37.45975 | -122.42973 | 10319 ft | 339 kts | 126° |
| 2026-05-05 21:49 | 37.44439 | -122.40598 | 10773 ft | 356 kts | 125° |
| 2026-05-05 21:49 | 37.42882 | -122.38149 | 11547 ft | 361 kts | 125° |
| 2026-05-05 21:49 | 37.41305 | -122.35666 | 12383 ft | 365 kts | 125° |
| 2026-05-05 21:50 | 37.39711 | -122.33164 | 13217 ft | 368 kts | 125° |
| 2026-05-05 21:50 | 37.38098 | -122.30646 | 14013 ft | 372 kts | 125° |
| 2026-05-05 21:50 | 37.36455 | -122.28090 | 14759 ft | 376 kts | 125° |
| 2026-05-05 21:50 | 37.34809 | -122.25537 | 15537 ft | 379 kts | 125° |
| 2026-05-05 21:51 | 37.33157 | -122.22980 | 16253 ft | 383 kts | 125° |
| 2026-05-05 21:51 | 37.31471 | -122.20373 | 17019 ft | 386 kts | 125° |
| 2026-05-05 21:51 | 37.29769 | -122.17743 | 17741 ft | 390 kts | 125° |
| 2026-05-05 21:51 | 37.28054 | -122.15096 | 18444 ft | 393 kts | 125° |
| 2026-05-05 21:52 | 37.24566 | -122.09720 | 19697 ft | 400 kts | 125° |
| 2026-05-05 21:52 | 37.22803 | -122.07005 | 20349 ft | 403 kts | 125° |
| 2026-05-05 21:52 | 37.21025 | -122.04271 | 20997 ft | 406 kts | 125° |
| 2026-05-05 21:53 | 37.19257 | -122.01554 | 21604 ft | 409 kts | 125° |
| 2026-05-05 21:53 | 37.17447 | -121.98773 | 22180 ft | 413 kts | 125° |
| 2026-05-05 21:53 | 37.15622 | -121.95972 | 22725 ft | 416 kts | 125° |
| 2026-05-05 21:53 | 37.13780 | -121.93147 | 23226 ft | 420 kts | 125° |
| 2026-05-05 21:54 | 37.11923 | -121.90303 | 23758 ft | 422 kts | 125° |
| 2026-05-05 21:54 | 37.10068 | -121.87466 | 24302 ft | 423 kts | 124° |
| 2026-05-05 21:54 | 37.08201 | -121.84611 | 24923 ft | 421 kts | 124° |
| 2026-05-05 21:54 | 37.06343 | -121.81775 | 25447 ft | 422 kts | 124° |
| 2026-05-05 21:55 | 37.04503 | -121.78967 | 25925 ft | 423 kts | 123° |
| 2026-05-05 21:55 | 37.02641 | -121.76123 | 26361 ft | 424 kts | 123° |
| 2026-05-05 21:55 | 37.00763 | -121.73260 | 26816 ft | 426 kts | 123° |
| 2026-05-05 21:55 | 36.98882 | -121.70396 | 27293 ft | 427 kts | 123° |
| 2026-05-05 21:56 | 36.96993 | -121.67523 | 27787 ft | 427 kts | 122° |
| 2026-05-05 21:56 | 36.95103 | -121.64650 | 28281 ft | 428 kts | 122° |
| 2026-05-05 21:56 | 36.93214 | -121.61782 | 28785 ft | 428 kts | 122° |
| 2026-05-05 21:56 | 36.91320 | -121.58908 | 29221 ft | 429 kts | 122° |
| 2026-05-05 21:57 | 36.89418 | -121.56022 | 29638 ft | 430 kts | 121° |
| 2026-05-05 21:57 | 36.87515 | -121.53138 | 30039 ft | 431 kts | 121° |
| 2026-05-05 21:57 | 36.85624 | -121.50276 | 30365 ft | 433 kts | 121° |
| 2026-05-05 21:57 | 36.83703 | -121.47367 | 30607 ft | 436 kts | 121° |
| 2026-05-05 21:58 | 36.81766 | -121.44437 | 30836 ft | 439 kts | 122° |
| 2026-05-05 21:58 | 36.79812 | -121.41486 | 31095 ft | 442 kts | 121° |
| 2026-05-05 21:58 | 36.77853 | -121.38532 | 31419 ft | 442 kts | 121° |
| 2026-05-05 21:58 | 36.75895 | -121.35584 | 31807 ft | 441 kts | 122° |
| 2026-05-05 21:59 | 36.73934 | -121.32637 | 32184 ft | 440 kts | 122° |
| 2026-05-05 21:59 | 36.71982 | -121.29700 | 32511 ft | 441 kts | 122° |
| 2026-05-05 21:59 | 36.70025 | -121.26759 | 32836 ft | 441 kts | 121° |
| 2026-05-05 21:59 | 36.68097 | -121.23863 | 33226 ft | 440 kts | 122° |
| 2026-05-05 22:00 | 36.66149 | -121.20943 | 33660 ft | 438 kts | 122° |
| 2026-05-05 22:00 | 36.64195 | -121.18014 | 33958 ft | 439 kts | 121° |
| 2026-05-05 22:00 | 36.62243 | -121.15084 | 34210 ft | 441 kts | 122° |
| 2026-05-05 22:00 | 36.60283 | -121.12146 | 34481 ft | 441 kts | 122° |
| 2026-05-05 22:01 | 36.58326 | -121.09216 | 34740 ft | 441 kts | 122° |
| 2026-05-05 22:01 | 36.56363 | -121.06276 | 34959 ft | 442 kts | 123° |
| 2026-05-05 22:01 | 36.54392 | -121.03326 | 35202 ft | 443 kts | 122° |
| 2026-05-05 22:01 | 36.52423 | -121.00382 | 35466 ft | 443 kts | 123° |
| 2026-05-05 22:02 | 36.50473 | -120.97473 | 35682 ft | 444 kts | 123° |
| 2026-05-05 22:02 | 36.48495 | -120.94529 | 35896 ft | 445 kts | 123° |
| 2026-05-05 22:02 | 36.46513 | -120.91570 | 36081 ft | 445 kts | 123° |
| 2026-05-05 22:02 | 36.44528 | -120.88606 | 36259 ft | 446 kts | 123° |
| 2026-05-05 22:03 | 36.42540 | -120.85635 | 36468 ft | 447 kts | 123° |
| 2026-05-05 22:03 | 36.40552 | -120.82662 | 36656 ft | 448 kts | 123° |
| 2026-05-05 22:03 | 36.38564 | -120.79686 | 36856 ft | 449 kts | 124° |
| 2026-05-05 22:03 | 36.36566 | -120.76696 | 37047 ft | 450 kts | 124° |
| 2026-05-05 22:04 | 36.34566 | -120.73705 | 37273 ft | 451 kts | 124° |
| 2026-05-05 22:04 | 36.32557 | -120.70702 | 37427 ft | 453 kts | 124° |
| 2026-05-05 22:04 | 36.30571 | -120.67735 | 37568 ft | 455 kts | 124° |
| 2026-05-05 22:04 | 36.28549 | -120.64717 | 37744 ft | 455 kts | 125° |
| 2026-05-05 22:05 | 36.26523 | -120.61698 | 37919 ft | 456 kts | 126° |
| 2026-05-05 22:05 | 36.24497 | -120.58680 | 38117 ft | 456 kts | 126° |
| 2026-05-05 22:05 | 36.22469 | -120.55658 | 38261 ft | 457 kts | 125° |
| 2026-05-05 22:05 | 36.20428 | -120.52624 | 38457 ft | 458 kts | 126° |
| 2026-05-05 22:06 | 36.18386 | -120.49593 | 38645 ft | 458 kts | 126° |
| 2026-05-05 22:06 | 36.16346 | -120.46567 | 38818 ft | 458 kts | 126° |
| 2026-05-05 22:06 | 36.14327 | -120.43573 | 38967 ft | 458 kts | 127° |
| 2026-05-05 22:07 | 36.10237 | -120.37512 | 39050 ft | 460 kts | 127° |
| 2026-05-05 22:07 | 36.06136 | -120.31449 | 39056 ft | 460 kts | 127° |
| 2026-05-05 22:08 | 36.02032 | -120.25389 | 39059 ft | 460 kts | 128° |
| 2026-05-05 22:08 | 35.97920 | -120.19324 | 39045 ft | 461 kts | 128° |
| 2026-05-05 22:09 | 35.93833 | -120.13306 | 39051 ft | 461 kts | 128° |
| 2026-05-05 22:09 | 35.89713 | -120.07233 | 39048 ft | 462 kts | 128° |
| 2026-05-05 22:10 | 35.85592 | -120.01153 | 39039 ft | 462 kts | 124° |
| 2026-05-05 22:10 | 35.82401 | -119.94384 | 39074 ft | 455 kts | 114° |
| 2026-05-05 22:11 | 35.79649 | -119.87336 | 39048 ft | 457 kts | 114° |
| 2026-05-05 22:11 | 35.76907 | -119.80331 | 39034 ft | 458 kts | 115° |
| 2026-05-05 22:12 | 35.74108 | -119.73283 | 39040 ft | 459 kts | 115° |
| 2026-05-05 22:12 | 35.71288 | -119.66230 | 39036 ft | 460 kts | 115° |
| 2026-05-05 22:13 | 35.68450 | -119.59157 | 39036 ft | 462 kts | 115° |
| 2026-05-05 22:13 | 35.65624 | -119.52120 | 39044 ft | 463 kts | 115° |
| 2026-05-05 22:14 | 35.62763 | -119.45008 | 39055 ft | 464 kts | 116° |
| 2026-05-05 22:14 | 35.59891 | -119.37882 | 39055 ft | 467 kts | 116° |
| 2026-05-05 22:15 | 35.56995 | -119.30714 | 39036 ft | 469 kts | 116° |
| 2026-05-05 22:15 | 35.54110 | -119.23571 | 39037 ft | 470 kts | 116° |
| 2026-05-05 22:16 | 35.51197 | -119.16374 | 39036 ft | 471 kts | 116° |
| 2026-05-05 22:16 | 35.49726 | -119.12758 | 38615 ft | 479 kts | 116° |
| 2026-05-05 22:16 | 35.47940 | -119.09319 | 37982 ft | 478 kts | 132° |
| 2026-05-05 22:16 | 35.45506 | -119.06581 | 37481 ft | 473 kts | 142° |
| 2026-05-05 22:17 | 35.42909 | -119.04125 | 36849 ft | 472 kts | 143° |
| 2026-05-05 22:17 | 35.40275 | -119.01724 | 36237 ft | 471 kts | 143° |
| 2026-05-05 22:17 | 35.37649 | -118.99333 | 35587 ft | 470 kts | 143° |
| 2026-05-05 22:17 | 35.35073 | -118.96956 | 34929 ft | 470 kts | 143° |
| 2026-05-05 22:18 | 35.32475 | -118.94526 | 34228 ft | 471 kts | 142° |
| 2026-05-05 22:18 | 35.29884 | -118.92079 | 33686 ft | 467 kts | 142° |
| 2026-05-05 22:18 | 35.27326 | -118.89654 | 33116 ft | 463 kts | 142° |
| 2026-05-05 22:18 | 35.24791 | -118.87248 | 32612 ft | 458 kts | 142° |
| 2026-05-05 22:19 | 35.22287 | -118.84874 | 32121 ft | 454 kts | 141° |
| 2026-05-05 22:19 | 35.19804 | -118.82523 | 31653 ft | 450 kts | 142° |
| 2026-05-05 22:19 | 35.17341 | -118.80191 | 31166 ft | 446 kts | 142° |
| 2026-05-05 22:19 | 35.14901 | -118.77882 | 30710 ft | 442 kts | 141° |
| 2026-05-05 22:20 | 35.12475 | -118.75588 | 30246 ft | 439 kts | 142° |
| 2026-05-05 22:20 | 35.10103 | -118.73352 | 29715 ft | 435 kts | 142° |
| 2026-05-05 22:20 | 35.07732 | -118.71096 | 29197 ft | 430 kts | 139° |
| 2026-05-05 22:20 | 35.05704 | -118.68466 | 28861 ft | 420 kts | 129° |
| 2026-05-05 22:21 | 35.03898 | -118.65683 | 28383 ft | 416 kts | 129° |
| 2026-05-05 22:21 | 35.02099 | -118.62949 | 27916 ft | 412 kts | 130° |
| 2026-05-05 22:21 | 35.00291 | -118.60266 | 27426 ft | 409 kts | 131° |
| 2026-05-05 22:21 | 34.98466 | -118.57605 | 26915 ft | 407 kts | 131° |
| 2026-05-05 22:22 | 34.96655 | -118.54978 | 26454 ft | 404 kts | 131° |
| 2026-05-05 22:22 | 34.94874 | -118.52394 | 25989 ft | 401 kts | 131° |
| 2026-05-05 22:22 | 34.93089 | -118.49800 | 25528 ft | 399 kts | 132° |
| 2026-05-05 22:22 | 34.91314 | -118.47217 | 25072 ft | 396 kts | 133° |
| 2026-05-05 22:23 | 34.89551 | -118.44651 | 24615 ft | 395 kts | 132° |
| 2026-05-05 22:23 | 34.87790 | -118.42085 | 24120 ft | 393 kts | 133° |
| 2026-05-05 22:23 | 34.86041 | -118.39537 | 23654 ft | 392 kts | 132° |
| 2026-05-05 22:23 | 34.84292 | -118.36988 | 23139 ft | 391 kts | 133° |
| 2026-05-05 22:24 | 34.82550 | -118.34452 | 22668 ft | 389 kts | 133° |
| 2026-05-05 22:24 | 34.80836 | -118.31968 | 22206 ft | 388 kts | 133° |
| 2026-05-05 22:24 | 34.79109 | -118.29468 | 21737 ft | 385 kts | 133° |
| 2026-05-05 22:24 | 34.77390 | -118.26983 | 21272 ft | 382 kts | 133° |
| 2026-05-05 22:25 | 34.75681 | -118.24519 | 20820 ft | 379 kts | 133° |
| 2026-05-05 22:25 | 34.73986 | -118.22075 | 20376 ft | 377 kts | 133° |
| 2026-05-05 22:25 | 34.72306 | -118.19648 | 19946 ft | 374 kts | 132° |
| 2026-05-05 22:25 | 34.70644 | -118.17245 | 19517 ft | 371 kts | 133° |
| 2026-05-05 22:26 | 34.68991 | -118.14850 | 19096 ft | 368 kts | 134° |
| 2026-05-05 22:26 | 34.67353 | -118.12481 | 18690 ft | 365 kts | 133° |
| 2026-05-05 22:26 | 34.65720 | -118.10127 | 18267 ft | 363 kts | 133° |
| 2026-05-05 22:26 | 34.64120 | -118.07827 | 17801 ft | 360 kts | 133° |
| 2026-05-05 22:27 | 34.62582 | -118.05438 | 17359 ft | 359 kts | 125° |
| 2026-05-05 22:27 | 34.61334 | -118.02843 | 17025 ft | 354 kts | 122° |
| 2026-05-05 22:27 | 34.60163 | -118.00220 | 16603 ft | 352 kts | 121° |
| 2026-05-05 22:27 | 34.59019 | -117.97614 | 16204 ft | 349 kts | 121° |
| 2026-05-05 22:28 | 34.57872 | -117.95023 | 15789 ft | 346 kts | 121° |
| 2026-05-05 22:28 | 34.56728 | -117.92470 | 15383 ft | 344 kts | 121° |
| 2026-05-05 22:28 | 34.55580 | -117.89930 | 14980 ft | 342 kts | 121° |
| 2026-05-05 22:28 | 34.54451 | -117.87444 | 14574 ft | 340 kts | 121° |
| 2026-05-05 22:29 | 34.53308 | -117.84942 | 14170 ft | 339 kts | 121° |
| 2026-05-05 22:29 | 34.52168 | -117.82446 | 13758 ft | 337 kts | 121° |
| 2026-05-05 22:29 | 34.51035 | -117.79969 | 13312 ft | 336 kts | 121° |
| 2026-05-05 22:29 | 34.49905 | -117.77501 | 12879 ft | 333 kts | 121° |
| 2026-05-05 22:30 | 34.48784 | -117.75055 | 12467 ft | 331 kts | 120° |
| 2026-05-05 22:30 | 34.47672 | -117.72628 | 12072 ft | 329 kts | 121° |
| 2026-05-05 22:30 | 34.46562 | -117.70205 | 11680 ft | 327 kts | 121° |
| 2026-05-05 22:30 | 34.45476 | -117.67835 | 11368 ft | 323 kts | 121° |
| 2026-05-05 22:31 | 34.44403 | -117.65505 | 11232 ft | 312 kts | 121° |
| 2026-05-05 22:31 | 34.43361 | -117.63245 | 11105 ft | 302 kts | 122° |
| 2026-05-05 22:31 | 34.42346 | -117.61046 | 10828 ft | 299 kts | 122° |
| 2026-05-05 22:31 | 34.41335 | -117.58856 | 10522 ft | 297 kts | 121° |
| 2026-05-05 22:32 | 34.40325 | -117.56672 | 10207 ft | 296 kts | 121° |
| 2026-05-05 22:32 | 34.39330 | -117.54522 | 10070 ft | 289 kts | 121° |
| 2026-05-05 22:32 | 34.38373 | -117.52450 | 9887 ft | 283 kts | 121° |
| 2026-05-05 22:32 | 34.37404 | -117.50350 | 9559 ft | 282 kts | 121° |
| 2026-05-05 22:33 | 34.36461 | -117.48306 | 9264 ft | 280 kts | 121° |
| 2026-05-05 22:33 | 34.35511 | -117.46258 | 8965 ft | 278 kts | 121° |
| 2026-05-05 22:33 | 34.34565 | -117.44220 | 8676 ft | 276 kts | 122° |
| 2026-05-05 22:33 | 34.33630 | -117.42201 | 8408 ft | 275 kts | 122° |
| 2026-05-05 22:34 | 34.32701 | -117.40195 | 8130 ft | 273 kts | 122° |
| 2026-05-05 22:34 | 34.31775 | -117.38203 | 7865 ft | 270 kts | 122° |
| 2026-05-05 22:34 | 34.30851 | -117.36226 | 7598 ft | 269 kts | 123° |
| 2026-05-05 22:34 | 34.29700 | -117.34543 | 7328 ft | 262 kts | 148° |
| 2026-05-05 22:35 | 34.28121 | -117.33636 | 7266 ft | 243 kts | 167° |
| 2026-05-05 22:35 | 34.26540 | -117.33142 | 7152 ft | 227 kts | 171° |
| 2026-05-05 22:35 | 34.25045 | -117.32729 | 7032 ft | 214 kts | 171° |
| 2026-05-05 22:35 | 34.23642 | -117.32332 | 6906 ft | 200 kts | 172° |
| 2026-05-05 22:36 | 34.22328 | -117.31951 | 6807 ft | 188 kts | 172° |
| 2026-05-05 22:36 | 34.21096 | -117.31588 | 6660 ft | 178 kts | 172° |
| 2026-05-05 22:36 | 34.19927 | -117.31243 | 6450 ft | 175 kts | 172° |
| 2026-05-05 22:36 | 34.18735 | -117.30891 | 6164 ft | 175 kts | 172° |
| 2026-05-05 22:37 | 34.17566 | -117.30541 | 5909 ft | 173 kts | 173° |
| 2026-05-05 22:37 | 34.16394 | -117.30188 | 5618 ft | 173 kts | 171° |
| 2026-05-05 22:37 | 34.15225 | -117.29835 | 5315 ft | 173 kts | 171° |
| 2026-05-05 22:37 | 34.14079 | -117.29491 | 5120 ft | 168 kts | 173° |
| 2026-05-05 22:38 | 34.12966 | -117.29157 | 5021 ft | 165 kts | 171° |
| 2026-05-05 22:38 | 34.11846 | -117.29060 | 4931 ft | 161 kts | 209° |
| 2026-05-05 22:38 | 34.11072 | -117.29964 | 4957 ft | 159 kts | 232° |
| 2026-05-05 22:38 | 34.10303 | -117.30945 | 4964 ft | 165 kts | 229° |
| 2026-05-05 22:39 | 34.09478 | -117.31952 | 4869 ft | 172 kts | 228° |
| 2026-05-05 22:39 | 34.08635 | -117.32985 | 4690 ft | 171 kts | 229° |
| 2026-05-05 22:39 | 34.07816 | -117.33988 | 4505 ft | 165 kts | 229° |
| 2026-05-05 22:39 | 34.07035 | -117.34949 | 4317 ft | 156 kts | 229° |
| 2026-05-05 22:40 | 34.06288 | -117.35869 | 4159 ft | 154 kts | 229° |
| 2026-05-05 22:40 | 34.05833 | -117.37017 | 3991 ft | 159 kts | 269° |
| 2026-05-05 22:40 | 34.05803 | -117.38361 | 3789 ft | 159 kts | 262° |
| 2026-05-05 22:40 | 34.05657 | -117.39642 | 3607 ft | 154 kts | 263° |
| 2026-05-05 22:41 | 34.05574 | -117.40885 | 3468 ft | 141 kts | 268° |
| 2026-05-05 22:41 | 34.05549 | -117.42030 | 3392 ft | 134 kts | 270° |
| 2026-05-05 22:41 | 34.05540 | -117.43127 | 3375 ft | 130 kts | 270° |
| 2026-05-05 22:41 | 34.05530 | -117.44234 | 3240 ft | 136 kts | 269° |
| 2026-05-05 22:42 | 34.05518 | -117.45397 | 3077 ft | 142 kts | 268° |
| 2026-05-05 22:42 | 34.05513 | -117.46581 | 2875 ft | 139 kts | 270° |
| 2026-05-05 22:42 | 34.05516 | -117.47694 | 2698 ft | 128 kts | 271° |
| 2026-05-05 22:42 | 34.05518 | -117.48735 | 2528 ft | 123 kts | 270° |
| 2026-05-05 22:43 | 34.05517 | -117.49767 | 2372 ft | 125 kts | 269° |
| 2026-05-05 22:43 | 34.05511 | -117.50838 | 2212 ft | 134 kts | 271° |
| 2026-05-05 22:43 | 34.05505 | -117.51982 | 2034 ft | 139 kts | 269° |
| 2026-05-05 22:43 | 34.05504 | -117.53160 | 1834 ft | 141 kts | 270° |
| 2026-05-05 22:44 | 34.05506 | -117.54335 | 1623 ft | 137 kts | 272° |
| 2026-05-05 22:44 | 34.05504 | -117.55466 | 1431 ft | 133 kts | 274° |
| 2026-05-05 22:44 | 34.05503 | -117.56580 | 1257 ft | 134 kts | 275° |
| 2026-05-05 22:44 | 34.05501 | -117.57683 | 1069 ft | 127 kts | 276° |
| 2026-05-05 22:45 | 34.05523 | -117.58700 | 941 ft | 117 kts | 271° |
| 2026-05-05 22:45 | 34.05439 | -117.59660 | 1165 ft | 131 kts | 258° |
| 2026-05-05 22:45 | 34.05152 | -117.60730 | 2036 ft | 132 kts | 237° |
| 2026-05-05 22:45 | 34.04505 | -117.61534 | 2412 ft | 153 kts | 213° |
| 2026-05-05 22:46 | 34.03426 | -117.61849 | 2188 ft | 160 kts | 177° |
| 2026-05-05 22:46 | 34.02380 | -117.61314 | 2191 ft | 184 kts | 151° |
| 2026-05-05 22:46 | 34.01169 | -117.60366 | 2465 ft | 223 kts | 150° |
| 2026-05-05 22:46 | 33.99859 | -117.59323 | 3499 ft | 222 kts | 149° |
| 2026-05-05 22:47 | 33.98564 | -117.58281 | 4292 ft | 229 kts | 149° |
| 2026-05-05 22:47 | 33.97264 | -117.57241 | 4597 ft | 225 kts | 149° |
| 2026-05-05 22:47 | 33.95985 | -117.56122 | 4597 ft | 230 kts | 136° |
| 2026-05-05 22:47 | 33.95137 | -117.54483 | 4603 ft | 235 kts | 108° |
| 2026-05-05 22:48 | 33.94936 | -117.52524 | 4600 ft | 239 kts | 88° |
| 2026-05-05 22:48 | 33.95010 | -117.50521 | 4599 ft | 240 kts | 88° |
| 2026-05-05 22:48 | 33.95067 | -117.48510 | 4590 ft | 240 kts | 88° |
| 2026-05-05 22:48 | 33.95119 | -117.46493 | 4616 ft | 243 kts | 88° |
| 2026-05-05 22:49 | 33.95172 | -117.44438 | 4600 ft | 247 kts | 88° |
| 2026-05-05 22:49 | 33.95229 | -117.42382 | 4581 ft | 244 kts | 88° |
| 2026-05-05 22:49 | 33.95291 | -117.40380 | 4578 ft | 242 kts | 88° |
| 2026-05-05 22:49 | 33.95350 | -117.38365 | 4588 ft | 240 kts | 88° |
| 2026-05-05 22:50 | 33.95410 | -117.36364 | 4571 ft | 238 kts | 88° |
| 2026-05-05 22:50 | 33.95467 | -117.34380 | 4586 ft | 235 kts | 88° |
| 2026-05-05 22:50 | 33.95524 | -117.32436 | 4540 ft | 230 kts | 88° |
| 2026-05-05 22:50 | 33.95575 | -117.30521 | 4557 ft | 229 kts | 87° |
| 2026-05-05 22:51 | 33.95621 | -117.28600 | 4591 ft | 237 kts | 84° |
| 2026-05-05 22:51 | 33.96086 | -117.26649 | 4558 ft | 244 kts | 58° |
| 2026-05-05 22:51 | 33.97174 | -117.25158 | 4586 ft | 237 kts | 31° |
| 2026-05-05 22:51 | 33.98661 | -117.24385 | 4564 ft | 233 kts | 4° |
| 2026-05-05 22:52 | 34.00253 | -117.24356 | 4595 ft | 228 kts | 351° |
| 2026-05-05 22:52 | 34.01832 | -117.24551 | 4598 ft | 226 kts | 338° |
| 2026-05-05 22:52 | 34.03186 | -117.25385 | 4590 ft | 217 kts | 315° |
| 2026-05-05 22:52 | 34.04316 | -117.26508 | 4595 ft | 203 kts | 314° |
| 2026-05-05 22:53 | 34.05039 | -117.27849 | 4603 ft | 189 kts | 275° |
| 2026-05-05 22:53 | 34.05175 | -117.29437 | 4604 ft | 193 kts | 272° |
| 2026-05-05 22:53 | 34.05349 | -117.31027 | 4605 ft | 196 kts | 273° |
| 2026-05-05 22:53 | 34.05469 | -117.32655 | 4593 ft | 193 kts | 269° |
| 2026-05-05 22:54 | 34.05510 | -117.34245 | 4596 ft | 187 kts | 267° |
| 2026-05-05 22:54 | 34.05519 | -117.35795 | 4589 ft | 183 kts | 266° |
| 2026-05-05 22:54 | 34.05517 | -117.37323 | 4575 ft | 185 kts | 265° |
| 2026-05-05 22:54 | 34.05493 | -117.38896 | 4545 ft | 191 kts | 264° |
| 2026-05-05 22:55 | 34.05367 | -117.40509 | 4410 ft | 186 kts | 260° |
| 2026-05-05 22:55 | 34.05244 | -117.42017 | 4162 ft | 184 kts | 263° |
| 2026-05-05 22:55 | 34.05264 | -117.43612 | 3666 ft | 193 kts | 268° |
| 2026-05-05 22:55 | 34.05309 | -117.45153 | 3463 ft | 173 kts | 268° |
| 2026-05-05 22:56 | 34.05383 | -117.46514 | 3165 ft | 159 kts | 269° |
| 2026-05-05 22:56 | 34.05495 | -117.47779 | 2905 ft | 146 kts | 270° |
| 2026-05-05 22:56 | 34.05527 | -117.48965 | 2567 ft | 138 kts | 263° |
| 2026-05-05 22:56 | 34.05494 | -117.50071 | 2332 ft | 127 kts | 265° |
| 2026-05-05 22:57 | 34.05471 | -117.51132 | 2052 ft | 129 kts | 266° |
| 2026-05-05 22:57 | 34.05463 | -117.52251 | 1852 ft | 134 kts | 270° |
| 2026-05-05 22:57 | 34.05487 | -117.53373 | 1710 ft | 138 kts | 269° |
| 2026-05-05 22:57 | 34.05495 | -117.54531 | 1541 ft | 137 kts | 270° |
| 2026-05-05 22:58 | 34.05499 | -117.55652 | 1357 ft | 133 kts | 271° |
| 2026-05-05 22:58 | 34.05503 | -117.56756 | 1192 ft | 133 kts | 271° |
| 2026-05-05 22:58 | 34.05488 | -117.57915 | 1094 ft | 135 kts | 271° |
| 2026-05-05 22:58 | 34.05489 | -117.59016 | 935 ft | 122 kts | 274° |
| 2026-05-05 22:59 | 34.05495 | -117.59742 | 934 ft | 68 kts | 269° |
| 2026-05-05 22:59 | 34.05497 | -117.60227 | 937 ft | 40 kts | 269° |
| 2026-05-05 22:59 | 34.05548 | -117.60489 | 935 ft | 22 kts | 295° |
| 2026-05-05 22:59 | 34.05627 | -117.60629 | 940 ft | 18 kts | 314° |
| 2026-05-05 23:00 | 34.05682 | -117.60592 | 943 ft | 5 kts | 77° |
| 2026-05-05 23:00 | 34.05689 | -117.60543 | 944 ft | 10 kts | 84° |
| 2026-05-05 23:00 | 34.05689 | -117.60421 | 945 ft | 18 kts | 90° |
| 2026-05-05 23:01 | 34.05709 | -117.60267 | 943 ft | 16 kts | 39° |
| 2026-05-05 23:01 | 34.05796 | -117.60193 | 944 ft | 16 kts | 72° |
| 2026-05-05 23:01 | 34.05800 | -117.60061 | 941 ft | 16 kts | 90° |
| 2026-05-05 23:01 | 34.05875 | -117.59980 | 939 ft | 16 kts | 20° |
| 2026-05-05 23:02 | 34.05965 | -117.59916 | 940 ft | 10 kts | 3° |
| 2026-05-05 23:02 | 34.05983 | -117.59916 | 941 ft | 0 kts | 8° |